createdAt,value
2018-10-18T00:00:33.261Z,943.08
2018-10-18T00:01:41.323Z,943.10
2018-10-18T00:02:49.389Z,943.09
2018-10-18T00:03:57.545Z,943.06
2018-10-18T00:05:05.531Z,943.11
2018-10-18T00:06:13.653Z,943.08
2018-10-18T00:07:21.643Z,943.07
2018-10-18T00:08:29.796Z,943.07
2018-10-18T00:09:37.984Z,943.08
2018-10-18T00:10:45.826Z,943.07
2018-10-18T00:11:53.906Z,943.06
2018-10-18T00:13:01.970Z,943.07
2018-10-18T00:14:10.073Z,943.07
2018-10-18T00:15:18.161Z,943.08
2018-10-18T00:16:26.134Z,943.12
2018-10-18T00:17:34.210Z,943.07
2018-10-18T00:18:42.278Z,943.10
2018-10-18T00:19:50.317Z,943.14
2018-10-18T00:20:58.465Z,943.15
2018-10-18T00:22:06.462Z,943.17
2018-10-18T00:23:14.523Z,943.18
2018-10-18T00:24:22.680Z,943.20
2018-10-18T00:25:30.635Z,943.17
2018-10-18T00:26:38.773Z,943.14
2018-10-18T00:27:46.773Z,943.16
2018-10-18T00:28:54.836Z,943.16
2018-10-18T00:30:02.950Z,943.14
2018-10-18T00:31:10.957Z,943.13
2018-10-18T00:32:19.126Z,943.16
2018-10-18T00:33:27.085Z,943.11
2018-10-18T00:34:35.140Z,943.13
2018-10-18T00:35:43.204Z,943.11
2018-10-18T00:36:51.282Z,943.12
2018-10-18T00:37:59.478Z,943.09
2018-10-18T00:39:07.397Z,943.08
2018-10-18T00:40:15.558Z,943.11
2018-10-18T00:41:23.531Z,943.08
2018-10-18T00:42:31.695Z,943.11
2018-10-18T00:43:39.642Z,943.10
2018-10-18T00:44:47.717Z,943.06
2018-10-18T00:45:55.782Z,943.06
2018-10-18T00:47:03.840Z,943.05
2018-10-18T00:48:12.082Z,943.04
2018-10-18T00:49:19.970Z,943.02
2018-10-18T00:50:28.023Z,943.02
2018-10-18T00:51:36.095Z,942.98
2018-10-18T00:52:44.246Z,943.00
2018-10-18T00:53:52.246Z,943.02
2018-10-18T00:55:00.265Z,943.02
2018-10-18T00:56:08.504Z,943.01
2018-10-18T00:57:16.397Z,943.02
2018-10-18T00:58:24.553Z,943.02
2018-10-18T00:59:32.526Z,943.03
2018-10-18T01:00:40.594Z,942.99
2018-10-18T01:01:48.628Z,943.00
2018-10-18T01:02:56.718Z,943.01
2018-10-18T01:04:04.880Z,942.97
2018-10-18T01:05:12.836Z,943.00
2018-10-18T01:06:21.044Z,942.98
2018-10-18T01:07:28.955Z,942.94
2018-10-18T01:08:37.042Z,942.96
2018-10-18T01:09:45.188Z,942.97
2018-10-18T01:10:53.146Z,942.98
2018-10-18T01:12:01.394Z,942.98
2018-10-18T01:13:09.275Z,942.97
2018-10-18T01:14:17.368Z,942.98
2018-10-18T01:15:25.493Z,942.97
2018-10-18T01:16:33.464Z,942.95
2018-10-18T01:17:41.533Z,942.95
2018-10-18T01:18:49.605Z,943.01
2018-10-18T01:19:57.668Z,942.98
2018-10-18T01:21:05.805Z,942.95
2018-10-18T01:22:13.785Z,942.93
2018-10-18T01:23:21.852Z,942.94
2018-10-18T01:24:29.905Z,942.92
2018-10-18T01:25:37.972Z,942.95
2018-10-18T01:26:46.132Z,942.89
2018-10-18T01:27:54.098Z,942.92
2018-10-18T01:29:02.160Z,942.93
2018-10-18T01:30:10.290Z,942.92
2018-10-18T01:31:18.268Z,942.94
2018-10-18T01:32:26.404Z,942.98
2018-10-18T01:33:34.416Z,942.97
2018-10-18T01:34:42.491Z,942.99
2018-10-18T01:35:50.536Z,942.95
2018-10-18T01:36:58.585Z,942.99
2018-10-18T01:38:06.788Z,942.94
2018-10-18T01:39:14.728Z,942.95
2018-10-18T01:40:22.799Z,942.92
2018-10-18T01:41:30.857Z,942.95
2018-10-18T01:42:38.994Z,942.90
2018-10-18T01:43:47.079Z,942.89
2018-10-18T01:44:55.035Z,942.93
2018-10-18T01:46:03.101Z,942.93
2018-10-18T01:47:11.175Z,942.87
2018-10-18T01:48:19.228Z,942.88
2018-10-18T01:49:27.389Z,942.87
2018-10-18T01:50:35.360Z,942.82
2018-10-18T01:51:43.427Z,942.83
2018-10-18T01:52:51.481Z,942.81
2018-10-18T01:53:59.609Z,942.84
2018-10-18T01:55:07.700Z,942.83
2018-10-18T01:56:15.745Z,942.86
2018-10-18T01:57:23.733Z,942.82
2018-10-18T01:58:31.896Z,942.82
2018-10-18T01:59:39.868Z,942.83
2018-10-18T02:00:47.998Z,942.84
2018-10-18T02:01:56.140Z,942.85
2018-10-18T02:03:04.041Z,942.84
2018-10-18T02:04:12.112Z,942.83
2018-10-18T02:05:20.192Z,942.78
2018-10-18T02:06:28.310Z,942.82
2018-10-18T02:07:36.288Z,942.78
2018-10-18T02:08:44.359Z,942.75
2018-10-18T02:09:52.418Z,942.76
2018-10-18T02:11:00.516Z,942.81
2018-10-18T02:12:08.690Z,942.73
2018-10-18T02:13:16.605Z,942.73
2018-10-18T02:14:24.759Z,942.74
2018-10-18T02:15:32.732Z,942.78
2018-10-18T02:16:40.796Z,942.78
2018-10-18T02:17:48.954Z,942.77
2018-10-18T02:18:56.972Z,942.80
2018-10-18T02:20:04.986Z,942.76
2018-10-18T02:21:13.042Z,942.81
2018-10-18T02:22:21.112Z,942.79
2018-10-18T02:23:29.263Z,942.78
2018-10-18T02:24:37.247Z,942.75
2018-10-18T02:25:45.310Z,942.77
2018-10-18T02:26:53.368Z,942.80
2018-10-18T02:28:01.413Z,942.70
2018-10-18T02:29:09.586Z,942.76
2018-10-18T02:30:17.752Z,942.76
2018-10-18T02:31:25.640Z,942.73
2018-10-18T02:32:33.691Z,942.75
2018-10-18T02:33:41.724Z,942.73
2018-10-18T02:34:49.902Z,942.74
2018-10-18T02:35:57.944Z,942.76
2018-10-18T02:37:05.923Z,942.76
2018-10-18T02:38:13.987Z,942.74
2018-10-18T02:39:22.041Z,942.79
2018-10-18T02:40:30.209Z,942.73
2018-10-18T02:41:38.157Z,942.78
2018-10-18T02:42:46.246Z,942.77
2018-10-18T02:43:54.306Z,942.77
2018-10-18T02:45:02.363Z,942.70
2018-10-18T02:46:10.536Z,942.74
2018-10-18T02:47:18.468Z,942.69
2018-10-18T02:48:26.554Z,942.69
2018-10-18T02:49:34.620Z,942.69
2018-10-18T02:50:42.688Z,942.71
2018-10-18T02:51:50.850Z,942.70
2018-10-18T02:52:58.778Z,942.69
2018-10-18T02:54:06.950Z,942.70
2018-10-18T02:55:14.930Z,942.66
2018-10-18T02:56:22.991Z,942.69
2018-10-18T02:57:31.143Z,942.73
2018-10-18T02:58:39.228Z,942.70
2018-10-18T02:59:47.169Z,942.72
2018-10-18T03:00:55.224Z,942.70
2018-10-18T03:02:03.414Z,942.72
2018-10-18T03:03:11.469Z,942.76
2018-10-18T03:04:19.426Z,942.76
2018-10-18T03:05:27.498Z,942.77
2018-10-18T03:06:35.548Z,942.79
2018-10-18T03:07:43.625Z,942.76
2018-10-18T03:08:51.783Z,942.78
2018-10-18T03:09:59.742Z,942.80
2018-10-18T03:11:07.805Z,942.80
2018-10-18T03:12:16.003Z,942.75
2018-10-18T03:13:23.928Z,942.79
2018-10-18T03:14:32.079Z,942.76
2018-10-18T03:15:40.046Z,942.76
2018-10-18T03:16:48.105Z,942.80
2018-10-18T03:17:56.329Z,942.77
2018-10-18T03:19:04.243Z,942.79
2018-10-18T03:20:12.312Z,942.79
2018-10-18T03:21:20.362Z,942.81
2018-10-18T03:22:28.420Z,942.79
2018-10-18T03:23:36.515Z,942.84
2018-10-18T03:24:44.663Z,942.81
2018-10-18T03:25:52.616Z,942.83
2018-10-18T03:27:00.675Z,942.84
2018-10-18T03:28:08.710Z,942.82
2018-10-18T03:29:16.799Z,942.81
2018-10-18T03:30:25.479Z,942.81
2018-10-18T03:31:32.928Z,942.87
2018-10-18T03:32:41.032Z,942.85
2018-10-18T03:33:49.047Z,942.80
2018-10-18T03:34:57.106Z,942.83
2018-10-18T03:36:05.289Z,942.82
2018-10-18T03:37:13.239Z,942.83
2018-10-18T03:38:21.294Z,942.82
2018-10-18T03:39:29.862Z,942.83
2018-10-18T03:40:37.416Z,942.79
2018-10-18T03:41:45.639Z,942.77
2018-10-18T03:42:53.825Z,942.83
2018-10-18T03:44:01.609Z,942.87
2018-10-18T03:45:09.672Z,942.79
2018-10-18T03:46:18.190Z,942.81
2018-10-18T03:47:25.889Z,942.79
2018-10-18T03:48:33.851Z,942.78
2018-10-18T03:49:41.927Z,942.82
2018-10-18T03:50:50.019Z,942.84
2018-10-18T03:51:58.096Z,942.88
2018-10-18T03:53:06.304Z,942.86
2018-10-18T03:54:14.187Z,942.84
2018-10-18T03:55:22.233Z,942.83
2018-10-18T03:56:30.344Z,942.83
2018-10-18T03:57:39.194Z,942.80
2018-10-18T03:58:46.422Z,942.78
2018-10-18T03:59:55.002Z,942.77
2018-10-18T04:01:02.546Z,942.77
2018-10-18T04:02:10.616Z,942.78
2018-10-18T04:03:18.736Z,942.76
2018-10-18T04:04:26.743Z,942.76
2018-10-18T04:05:34.888Z,942.76
2018-10-18T04:06:42.868Z,942.75
2018-10-18T04:07:51.108Z,942.76
2018-10-18T04:08:58.975Z,942.73
2018-10-18T04:10:07.042Z,942.74
2018-10-18T04:11:15.405Z,942.74
2018-10-18T04:12:23.413Z,942.74
2018-10-18T04:13:31.336Z,942.67
2018-10-18T04:14:39.524Z,942.71
2018-10-18T04:15:47.367Z,942.71
2018-10-18T04:16:55.426Z,942.72
2018-10-18T04:18:03.747Z,942.74
2018-10-18T04:19:11.645Z,942.73
2018-10-18T04:20:19.621Z,942.72
2018-10-18T04:21:27.666Z,942.72
2018-10-18T04:22:35.749Z,942.75
2018-10-18T04:23:44.107Z,942.74
2018-10-18T04:24:51.988Z,942.72
2018-10-18T04:26:00.000Z,942.74
2018-10-18T04:27:08.012Z,942.71
2018-10-18T04:28:16.041Z,942.68
2018-10-18T04:29:24.118Z,942.72
2018-10-18T04:30:32.288Z,942.67
2018-10-18T04:31:40.241Z,942.68
2018-10-18T04:32:48.281Z,942.69
2018-10-18T04:33:56.454Z,942.67
2018-10-18T04:35:05.136Z,942.70
2018-10-18T04:36:12.668Z,942.75
2018-10-18T04:37:20.903Z,942.72
2018-10-18T04:38:28.600Z,942.69
2018-10-18T04:39:36.675Z,942.72
2018-10-18T04:40:44.837Z,942.73
2018-10-18T04:41:52.824Z,942.71
2018-10-18T04:43:00.907Z,942.74
2018-10-18T04:44:09.465Z,942.74
2018-10-18T04:45:17.004Z,942.76
2018-10-18T04:46:25.152Z,942.80
2018-10-18T04:47:33.126Z,942.81
2018-10-18T04:48:41.213Z,942.82
2018-10-18T04:49:49.334Z,942.83
2018-10-18T04:50:57.296Z,942.82
2018-10-18T04:52:05.451Z,942.82
2018-10-18T04:53:13.420Z,942.81
2018-10-18T04:54:21.501Z,942.88
2018-10-18T04:55:29.548Z,942.89
2018-10-18T04:56:37.753Z,942.86
2018-10-18T04:57:46.131Z,942.89
2018-10-18T04:58:53.737Z,942.90
2018-10-18T05:00:01.804Z,942.88
2018-10-18T05:01:09.947Z,942.91
2018-10-18T05:02:17.921Z,942.90
2018-10-18T05:03:26.087Z,942.92
2018-10-18T05:04:34.046Z,942.90
2018-10-18T05:05:42.205Z,942.90
2018-10-18T05:06:50.173Z,942.92
2018-10-18T05:07:58.214Z,942.91
2018-10-18T05:09:06.401Z,942.88
2018-10-18T05:10:14.913Z,942.91
2018-10-18T05:11:22.518Z,942.89
2018-10-18T05:12:30.579Z,942.87
2018-10-18T05:13:38.518Z,942.83
2018-10-18T05:14:46.698Z,942.89
2018-10-18T05:15:54.674Z,942.90
2018-10-18T05:17:02.750Z,942.89
2018-10-18T05:18:11.121Z,942.85
2018-10-18T05:19:18.829Z,942.83
2018-10-18T05:20:26.913Z,942.85
2018-10-18T05:21:35.031Z,942.84
2018-10-18T05:22:43.143Z,942.83
2018-10-18T05:23:51.121Z,942.85
2018-10-18T05:24:59.262Z,942.86
2018-10-18T05:26:07.218Z,942.83
2018-10-18T05:27:15.300Z,942.90
2018-10-18T05:28:23.500Z,942.90
2018-10-18T05:29:31.424Z,942.93
2018-10-18T05:30:39.584Z,942.88
2018-10-18T05:31:47.571Z,942.88
2018-10-18T05:32:55.636Z,942.89
2018-10-18T05:34:03.785Z,942.88
2018-10-18T05:35:11.732Z,942.91
2018-10-18T05:36:19.803Z,942.90
2018-10-18T05:37:27.881Z,942.95
2018-10-18T05:38:35.916Z,942.91
2018-10-18T05:39:44.093Z,942.93
2018-10-18T05:40:52.055Z,942.98
2018-10-18T05:42:00.102Z,942.94
2018-10-18T05:43:08.273Z,942.98
2018-10-18T05:44:16.242Z,942.95
2018-10-18T05:45:24.395Z,942.96
2018-10-18T05:46:32.471Z,943.01
2018-10-18T05:47:40.428Z,943.01
2018-10-18T05:48:48.459Z,943.02
2018-10-18T05:49:56.553Z,943.05
2018-10-18T05:51:04.848Z,943.04
2018-10-18T05:52:12.690Z,943.04
2018-10-18T05:53:20.946Z,943.04
2018-10-18T05:54:28.797Z,943.08
2018-10-18T05:55:36.878Z,943.15
2018-10-18T05:56:45.032Z,943.12
2018-10-18T05:57:52.989Z,943.13
2018-10-18T05:59:01.059Z,943.14
2018-10-18T06:00:09.151Z,943.18
2018-10-18T06:01:17.302Z,943.19
2018-10-18T06:02:25.348Z,943.21
2018-10-18T06:03:33.306Z,943.21
2018-10-18T06:04:41.378Z,943.23
2018-10-18T06:05:49.424Z,943.24
2018-10-18T06:06:57.576Z,943.29
2018-10-18T06:08:05.612Z,943.29
2018-10-18T06:09:13.613Z,943.31
2018-10-18T06:10:21.768Z,943.31
2018-10-18T06:11:29.756Z,943.32
2018-10-18T06:12:37.909Z,943.33
2018-10-18T06:13:45.870Z,943.34
2018-10-18T06:14:53.935Z,943.38
2018-10-18T06:16:01.998Z,943.36
2018-10-18T06:17:10.055Z,943.39
2018-10-18T06:18:18.168Z,943.35
2018-10-18T06:19:26.181Z,943.38
2018-10-18T06:20:34.253Z,943.39
2018-10-18T06:21:42.302Z,943.39
2018-10-18T06:22:50.680Z,943.45
2018-10-18T06:23:58.416Z,943.42
2018-10-18T06:25:06.564Z,943.44
2018-10-18T06:26:14.589Z,943.45
2018-10-18T06:27:22.622Z,943.45
2018-10-18T06:28:30.792Z,943.44
2018-10-18T06:29:38.736Z,943.45
2018-10-18T06:30:46.811Z,943.45
2018-10-18T06:31:54.958Z,943.43
2018-10-18T06:33:03.060Z,943.48
2018-10-18T06:34:11.064Z,943.47
2018-10-18T06:35:19.089Z,943.50
2018-10-18T06:36:27.128Z,943.55
2018-10-18T06:37:35.303Z,943.53
2018-10-18T06:38:43.254Z,943.59
2018-10-18T06:39:51.418Z,943.58
2018-10-18T06:40:59.400Z,943.59
2018-10-18T06:42:07.444Z,943.63
2018-10-18T06:43:15.557Z,943.62
2018-10-18T06:44:23.606Z,943.64
2018-10-18T06:45:31.728Z,943.67
2018-10-18T06:46:39.702Z,943.64
2018-10-18T06:47:47.855Z,943.63
2018-10-18T06:48:56.039Z,943.65
2018-10-18T06:50:03.889Z,943.67
2018-10-18T06:51:12.047Z,943.70
2018-10-18T06:52:20.027Z,943.72
2018-10-18T06:53:28.069Z,943.74
2018-10-18T06:54:36.144Z,943.80
2018-10-18T06:55:44.206Z,943.77
2018-10-18T06:56:52.373Z,943.81
2018-10-18T06:58:00.374Z,943.80
2018-10-18T06:59:08.374Z,943.80
2018-10-18T07:00:16.540Z,943.78
2018-10-18T07:01:24.546Z,943.78
2018-10-18T07:02:32.682Z,943.79
2018-10-18T07:03:40.643Z,943.83
2018-10-18T07:04:48.789Z,943.79
2018-10-18T07:05:56.839Z,943.79
2018-10-18T07:07:04.833Z,943.82
2018-10-18T07:08:12.954Z,943.81
2018-10-18T07:09:20.974Z,943.81
2018-10-18T07:10:29.030Z,943.80
2018-10-18T07:11:37.107Z,943.81
2018-10-18T07:12:45.274Z,943.82
2018-10-18T07:13:53.232Z,943.83
2018-10-18T07:15:01.313Z,943.84
2018-10-18T07:16:09.401Z,943.82
2018-10-18T07:17:17.429Z,943.87
2018-10-18T07:18:25.641Z,943.81
2018-10-18T07:19:33.575Z,943.84
2018-10-18T07:20:41.719Z,943.87
2018-10-18T07:21:49.688Z,943.87
2018-10-18T07:22:57.751Z,943.88
2018-10-18T07:24:05.951Z,943.93
2018-10-18T07:25:13.938Z,943.89
2018-10-18T07:26:21.957Z,943.90
2018-10-18T07:27:30.012Z,943.95
2018-10-18T07:28:38.068Z,943.99
2018-10-18T07:29:46.260Z,944.02
2018-10-18T07:30:54.223Z,943.95
2018-10-18T07:32:02.266Z,943.96
2018-10-18T07:33:10.380Z,944.01
2018-10-18T07:34:18.377Z,943.97
2018-10-18T07:35:26.559Z,943.95
2018-10-18T07:36:34.637Z,944.03
2018-10-18T07:37:42.615Z,943.93
2018-10-18T07:38:50.659Z,943.98
2018-10-18T07:39:58.718Z,944.03
2018-10-18T07:41:07.000Z,944.06
2018-10-18T07:42:14.961Z,944.01
2018-10-18T07:43:22.935Z,944.02
2018-10-18T07:44:31.012Z,944.07
2018-10-18T07:45:39.060Z,944.08
2018-10-18T07:46:47.279Z,944.15
2018-10-18T07:47:55.242Z,944.17
2018-10-18T07:49:03.396Z,944.16
2018-10-18T07:50:11.328Z,944.22
2018-10-18T07:51:19.395Z,944.20
2018-10-18T07:52:27.556Z,944.21
2018-10-18T07:53:35.628Z,944.18
2018-10-18T07:54:43.582Z,944.19
2018-10-18T07:55:51.658Z,944.21
2018-10-18T07:56:59.730Z,944.21
2018-10-18T07:58:07.893Z,944.21
2018-10-18T07:59:15.853Z,944.19
2018-10-18T08:00:24.020Z,944.14
2018-10-18T08:01:31.986Z,944.17
2018-10-18T08:02:40.059Z,944.19
2018-10-18T08:03:48.205Z,944.23
2018-10-18T08:04:56.189Z,944.24
2018-10-18T08:06:04.240Z,944.21
2018-10-18T08:07:12.338Z,944.20
2018-10-18T08:08:20.435Z,944.26
2018-10-18T08:09:28.531Z,944.22
2018-10-18T08:10:36.515Z,944.24
2018-10-18T08:11:44.593Z,944.23
2018-10-18T08:12:52.663Z,944.23
2018-10-18T08:14:00.707Z,944.15
2018-10-18T08:15:08.861Z,944.21
2018-10-18T08:16:16.846Z,944.27
2018-10-18T08:17:24.954Z,944.25
2018-10-18T08:18:32.981Z,944.20
2018-10-18T08:19:41.045Z,944.25
2018-10-18T08:20:49.203Z,944.19
2018-10-18T08:21:57.178Z,944.25
2018-10-18T08:23:05.295Z,944.24
2018-10-18T08:24:13.318Z,944.19
2018-10-18T08:25:21.378Z,944.24
2018-10-18T08:26:29.538Z,944.21
2018-10-18T08:27:37.511Z,944.30
2018-10-18T08:28:45.583Z,944.33
2018-10-18T08:29:53.682Z,944.30
2018-10-18T08:31:01.749Z,944.30
2018-10-18T08:32:09.835Z,944.32
2018-10-18T08:33:17.847Z,944.33
2018-10-18T08:34:25.924Z,944.28
2018-10-18T08:35:33.989Z,944.29
2018-10-18T08:36:42.055Z,944.33
2018-10-18T08:37:50.274Z,944.35
2018-10-18T08:38:58.171Z,944.35
2018-10-18T08:40:06.251Z,944.32
2018-10-18T08:41:14.323Z,944.34
2018-10-18T08:42:22.382Z,944.36
2018-10-18T08:43:30.446Z,944.41
2018-10-18T08:44:38.500Z,944.39
2018-10-18T08:45:46.587Z,944.34
2018-10-18T08:46:54.649Z,944.36
2018-10-18T08:48:02.820Z,944.32
2018-10-18T08:49:10.872Z,944.35
2018-10-18T08:50:18.843Z,944.38
2018-10-18T08:51:26.918Z,944.36
2018-10-18T08:52:35.049Z,944.42
2018-10-18T08:53:43.159Z,944.39
2018-10-18T08:54:51.130Z,944.34
2018-10-18T08:55:59.185Z,944.39
2018-10-18T08:57:07.263Z,944.44
2018-10-18T08:58:15.321Z,944.37
2018-10-18T08:59:23.609Z,944.46
2018-10-18T09:00:31.461Z,944.46
2018-10-18T09:01:39.527Z,944.42
2018-10-18T09:02:47.606Z,944.47
2018-10-18T09:03:55.674Z,944.43
2018-10-18T09:05:03.840Z,944.48
2018-10-18T09:06:11.813Z,944.49
2018-10-18T09:07:19.874Z,944.63
2018-10-18T09:08:28.020Z,944.53
2018-10-18T09:09:36.007Z,944.50
2018-10-18T09:10:44.173Z,944.48
2018-10-18T09:11:52.148Z,944.53
2018-10-18T09:13:00.232Z,944.46
2018-10-18T09:14:08.251Z,944.45
2018-10-18T09:15:16.349Z,944.44
2018-10-18T09:16:24.497Z,944.43
2018-10-18T09:17:32.477Z,944.39
2018-10-18T09:18:40.542Z,944.46
2018-10-18T09:19:48.591Z,944.46
2018-10-18T09:20:56.684Z,944.44
2018-10-18T09:22:04.853Z,944.46
2018-10-18T09:23:12.811Z,944.47
2018-10-18T09:24:20.998Z,944.50
2018-10-18T09:25:28.943Z,944.47
2018-10-18T09:26:37.035Z,944.49
2018-10-18T09:27:45.131Z,944.49
2018-10-18T09:28:53.158Z,944.54
2018-10-18T09:30:01.273Z,944.46
2018-10-18T09:31:09.429Z,944.54
2018-10-18T09:32:17.377Z,944.51
2018-10-18T09:33:25.474Z,944.55
2018-10-18T09:34:33.518Z,944.50
2018-10-18T09:35:41.583Z,944.54
2018-10-18T09:36:49.638Z,944.49
2018-10-18T09:37:57.750Z,944.54
2018-10-18T09:39:05.777Z,944.51
2018-10-18T09:40:13.937Z,944.43
2018-10-18T09:41:22.051Z,944.49
2018-10-18T09:42:30.021Z,944.46
2018-10-18T09:43:38.032Z,944.44
2018-10-18T09:44:46.192Z,944.47
2018-10-18T09:45:54.180Z,944.48
2018-10-18T09:47:02.254Z,944.46
2018-10-18T09:48:10.429Z,944.53
2018-10-18T09:49:18.461Z,944.49
2018-10-18T09:50:26.466Z,944.48
2018-10-18T09:51:34.551Z,944.51
2018-10-18T09:52:42.692Z,944.46
2018-10-18T09:53:50.655Z,944.44
2018-10-18T09:54:58.733Z,944.42
2018-10-18T09:56:06.992Z,944.55
2018-10-18T09:57:14.872Z,944.43
2018-10-18T09:58:23.028Z,944.38
2018-10-18T09:59:31.006Z,944.38
2018-10-18T10:00:39.098Z,944.37
2018-10-18T10:01:47.132Z,944.45
2018-10-18T10:02:55.201Z,944.39
2018-10-18T10:04:03.378Z,944.36
2018-10-18T10:05:11.340Z,944.36
2018-10-18T10:06:19.404Z,944.32
2018-10-18T10:07:27.478Z,944.40
2018-10-18T10:08:35.551Z,944.43
2018-10-18T10:09:43.745Z,944.45
2018-10-18T10:10:51.703Z,944.42
2018-10-18T10:11:59.846Z,944.41
2018-10-18T10:13:07.892Z,944.45
2018-10-18T10:14:15.899Z,944.45
2018-10-18T10:15:24.044Z,944.47
2018-10-18T10:16:32.031Z,944.45
2018-10-18T10:17:40.164Z,944.43
2018-10-18T10:18:48.153Z,944.42
2018-10-18T10:19:56.243Z,944.41
2018-10-18T10:21:04.402Z,944.35
2018-10-18T10:22:12.380Z,944.40
2018-10-18T10:23:20.455Z,944.39
2018-10-18T10:24:28.549Z,944.32
2018-10-18T10:25:36.598Z,944.32
2018-10-18T10:26:44.760Z,944.34
2018-10-18T10:27:52.774Z,944.31
2018-10-18T10:29:00.797Z,944.29
2018-10-18T10:30:08.850Z,944.32
2018-10-18T10:31:17.082Z,944.29
2018-10-18T10:32:25.117Z,944.30
2018-10-18T10:33:33.088Z,944.35
2018-10-18T10:34:41.121Z,944.32
2018-10-18T10:35:49.193Z,944.32
2018-10-18T10:36:57.412Z,944.32
2018-10-18T10:38:05.376Z,944.27
2018-10-18T10:39:13.474Z,944.26
2018-10-18T10:40:21.480Z,944.25
2018-10-18T10:41:29.533Z,944.22
2018-10-18T10:42:37.734Z,944.25
2018-10-18T10:43:45.681Z,944.22
2018-10-18T10:44:53.755Z,944.22
2018-10-18T10:46:01.829Z,944.25
2018-10-18T10:47:09.883Z,944.25
2018-10-18T10:48:18.107Z,944.24
2018-10-18T10:49:26.030Z,944.17
2018-10-18T10:50:34.094Z,944.24
2018-10-18T10:51:42.160Z,944.22
2018-10-18T10:52:50.323Z,944.19
2018-10-18T10:53:58.335Z,944.24
2018-10-18T10:55:06.347Z,944.13
2018-10-18T10:56:14.512Z,944.10
2018-10-18T10:57:22.505Z,944.09
2018-10-18T10:58:30.666Z,944.07
2018-10-18T10:59:38.624Z,944.02
2018-10-18T11:00:46.716Z,944.05
2018-10-18T11:01:54.819Z,944.01
2018-10-18T11:03:02.884Z,944.02
2018-10-18T11:04:11.008Z,944.00
2018-10-18T11:05:18.974Z,943.97
2018-10-18T11:06:27.059Z,943.97
2018-10-18T11:07:35.108Z,944.01
2018-10-18T11:08:43.176Z,943.96
2018-10-18T11:09:51.476Z,943.99
2018-10-18T11:10:59.325Z,943.96
2018-10-18T11:12:07.483Z,943.96
2018-10-18T11:13:15.488Z,943.96
2018-10-18T11:14:23.541Z,943.95
2018-10-18T11:15:32.451Z,943.92
2018-10-18T11:16:39.674Z,943.99
2018-10-18T11:17:47.730Z,943.94
2018-10-18T11:18:55.796Z,943.99
2018-10-18T11:20:03.907Z,944.00
2018-10-18T11:21:12.121Z,943.96
2018-10-18T11:22:20.044Z,943.88
2018-10-18T11:23:28.061Z,943.90
2018-10-18T11:24:36.178Z,943.89
2018-10-18T11:25:44.216Z,943.92
2018-10-18T11:26:52.377Z,943.85
2018-10-18T11:28:00.442Z,943.84
2018-10-18T11:29:08.407Z,943.83
2018-10-18T11:30:16.595Z,943.83
2018-10-18T11:31:24.553Z,943.83
2018-10-18T11:32:32.700Z,943.85
2018-10-18T11:33:40.700Z,943.85
2018-10-18T11:34:48.740Z,943.84
2018-10-18T11:35:56.820Z,943.91
2018-10-18T11:37:05.645Z,943.94
2018-10-18T11:38:13.195Z,943.91
2018-10-18T11:39:21.024Z,943.84
2018-10-18T11:40:29.125Z,943.84
2018-10-18T11:41:37.166Z,943.84
2018-10-18T11:42:45.338Z,943.90
2018-10-18T11:43:53.350Z,943.88
2018-10-18T11:45:01.384Z,943.84
2018-10-18T11:46:09.460Z,943.79
2018-10-18T11:47:17.511Z,943.84
2018-10-18T11:48:25.685Z,943.79
2018-10-18T11:49:33.684Z,943.79
2018-10-18T11:50:41.725Z,943.80
2018-10-18T11:51:49.917Z,943.82
2018-10-18T11:52:57.846Z,943.89
2018-10-18T11:54:06.080Z,943.88
2018-10-18T11:55:13.995Z,943.85
2018-10-18T11:56:22.050Z,943.86
2018-10-18T11:57:30.124Z,943.80
2018-10-18T11:58:38.197Z,943.82
2018-10-18T11:59:46.363Z,943.78
2018-10-18T12:00:54.338Z,943.78
2018-10-18T12:02:02.493Z,943.74
2018-10-18T12:03:10.509Z,943.72
2018-10-18T12:04:18.534Z,943.67
2018-10-18T12:05:26.702Z,943.69
2018-10-18T12:06:34.742Z,943.66
2018-10-18T12:07:42.740Z,943.64
2018-10-18T12:08:50.821Z,943.60
2018-10-18T12:09:58.868Z,943.64
2018-10-18T12:11:07.054Z,943.63
2018-10-18T12:12:15.054Z,943.65
2018-10-18T12:13:23.090Z,943.67
2018-10-18T12:14:31.250Z,943.68
2018-10-18T12:15:39.232Z,943.64
2018-10-18T12:16:47.382Z,943.64
2018-10-18T12:17:55.369Z,943.61
2018-10-18T12:19:03.512Z,943.60
2018-10-18T12:20:11.664Z,943.61
2018-10-18T12:21:19.573Z,943.59
2018-10-18T12:22:27.680Z,943.65
2018-10-18T12:23:35.713Z,943.55
2018-10-18T12:24:43.770Z,943.58
2018-10-18T12:25:51.890Z,943.51
2018-10-18T12:27:00.016Z,943.57
2018-10-18T12:28:08.056Z,943.54
2018-10-18T12:29:16.109Z,943.57
2018-10-18T12:30:24.205Z,943.55
2018-10-18T12:31:32.175Z,943.52
2018-10-18T12:32:40.294Z,943.50
2018-10-18T12:33:48.303Z,943.50
2018-10-18T12:34:56.433Z,943.52
2018-10-18T12:36:04.470Z,943.46
2018-10-18T12:37:12.523Z,943.43
2018-10-18T12:38:20.694Z,943.45
2018-10-18T12:39:28.702Z,943.46
2018-10-18T12:40:36.873Z,943.47
2018-10-18T12:41:44.834Z,943.51
2018-10-18T12:42:52.962Z,943.52
2018-10-18T12:44:01.014Z,943.37
2018-10-18T12:45:08.997Z,943.45
2018-10-18T12:46:17.180Z,943.42
2018-10-18T12:47:25.142Z,943.36
2018-10-18T12:48:33.413Z,943.38
2018-10-18T12:49:41.293Z,943.44
2018-10-18T12:50:49.345Z,943.41
2018-10-18T12:51:57.413Z,943.36
2018-10-18T12:53:05.493Z,943.37
2018-10-18T12:54:13.782Z,943.39
2018-10-18T12:55:21.618Z,943.46
2018-10-18T12:56:29.693Z,943.45
2018-10-18T12:57:37.776Z,943.45
2018-10-18T12:58:45.832Z,943.44
2018-10-18T12:59:54.015Z,943.39
2018-10-18T13:01:01.973Z,943.40
2018-10-18T13:02:10.280Z,943.39
2018-10-18T13:03:18.092Z,943.42
2018-10-18T13:04:26.168Z,943.48
2018-10-18T13:05:34.279Z,943.45
2018-10-18T13:06:42.310Z,943.46
2018-10-18T13:07:50.388Z,943.49
2018-10-18T13:08:58.418Z,943.49
2018-10-18T13:10:06.509Z,943.47
2018-10-18T13:11:14.573Z,943.45
2018-10-18T13:12:22.812Z,943.44
2018-10-18T13:13:30.727Z,943.44
2018-10-18T13:14:38.767Z,943.42
2018-10-18T13:15:46.963Z,943.38
2018-10-18T13:16:54.940Z,943.42
2018-10-18T13:18:03.107Z,943.34
2018-10-18T13:19:11.068Z,943.37
2018-10-18T13:20:19.248Z,943.34
2018-10-18T13:21:27.305Z,943.34
2018-10-18T13:22:35.283Z,943.31
2018-10-18T13:23:43.352Z,943.30
2018-10-18T13:24:51.401Z,943.30
2018-10-18T13:25:59.540Z,943.29
2018-10-18T13:27:07.651Z,943.27
2018-10-18T13:28:15.751Z,943.33
2018-10-18T13:29:23.697Z,943.27
2018-10-18T13:30:31.771Z,943.34
2018-10-18T13:31:39.818Z,943.28
2018-10-18T13:32:47.988Z,943.29
2018-10-18T13:33:55.996Z,943.31
2018-10-18T13:35:04.073Z,943.32
2018-10-18T13:36:12.166Z,943.29
2018-10-18T13:37:20.173Z,943.34
2018-10-18T13:38:28.223Z,943.35
2018-10-18T13:39:36.305Z,943.33
2018-10-18T13:40:44.442Z,943.36
2018-10-18T13:41:52.441Z,943.36
2018-10-18T13:43:00.554Z,943.35
2018-10-18T13:44:08.642Z,943.32
2018-10-18T13:45:16.640Z,943.36
2018-10-18T13:46:24.773Z,943.33
2018-10-18T13:47:32.882Z,943.31
2018-10-18T13:48:40.848Z,943.31
2018-10-18T13:49:48.918Z,943.31
2018-10-18T13:50:56.987Z,943.31
2018-10-18T13:52:05.056Z,943.30
2018-10-18T13:53:13.215Z,943.32
2018-10-18T13:54:21.189Z,943.28
2018-10-18T13:55:29.291Z,943.30
2018-10-18T13:56:37.350Z,943.32
2018-10-18T13:57:45.407Z,943.32
2018-10-18T13:58:53.568Z,943.36
2018-10-18T14:00:01.534Z,943.34
2018-10-18T14:01:09.638Z,943.36
2018-10-18T14:02:17.788Z,943.33
2018-10-18T14:03:25.788Z,943.35
2018-10-18T14:04:33.903Z,943.33
2018-10-18T14:05:42.014Z,943.30
2018-10-18T14:06:49.951Z,943.31
2018-10-18T14:07:58.047Z,943.30
2018-10-18T14:09:06.087Z,943.28